Terminal Aerodrome Forecast
Issued by NWS

Home | Current Version | Previous Version | Text Only | Print | Product List | Glossary On
Versions: 1 2 3 4 5 6 7 8 9 10 11 12 13 14 15 16 17 18 19 20 21 22 23 24 25 26 27 28 29 30 31 32 33 34 35
000
FTUS41 KCTP 240910 AAA
TAFBFD
TAF AMD
KBFD 240910Z 2409/2506 30004KT P6SM FEW009
      TEMPO 2410/2412 30003KT 6SM BR BKN006
     FM241300 30007KT P6SM BKN200=

USA.gov is the U.S. government's official web portal to all federal, state and local government web resources and services.